Swan Creek, Illinois
Current Conditions -  °F | °C
As of 3:35 PM on Friday 28 Nov 2014 (Local Time) from KMQB Reporting Station
Clear Clear  
Wind Chill: 30°   Ceiling: Unl
Heat Index: 38°   Visibility: 10mi
Dew Point: 33°   Wind: 13mph
Humidity: 81%   Direction: 160°SSE
Pressure: 29.92"   Gusts: NA
Location:  40.7092°N, 90.6155°W
Report Text: KMQB 282135Z AUTO 16011KT 10SM CLR 03/00 A2992 RMK AO2 T00330003
Loading
Personal Weather Stations






























Interactive Weather Map New forecast layout! Learn more

10-Day Weather Forecast

Advertisements
Track Severe Weather on mobile